createdAt,value
2023-04-15T08:08:52.423Z,3764.00
2023-04-15T08:09:52.411Z,3948.00
2023-04-15T08:10:52.843Z,4084.00
2023-04-15T08:11:52.417Z,3756.00
2023-04-15T08:12:52.423Z,3944.00
2023-04-15T08:13:52.449Z,4048.00
2023-04-15T08:14:52.426Z,4060.00
2023-04-15T08:15:52.494Z,4364.00
2023-04-15T08:16:52.444Z,3992.00
2023-04-15T08:17:52.479Z,4564.00
2023-04-15T08:18:52.446Z,4212.00
2023-04-15T08:19:52.460Z,4936.00
2023-04-15T08:20:52.459Z,4812.00
2023-04-15T08:21:52.461Z,4024.00
2023-04-15T08:22:52.473Z,4100.00
2023-04-15T08:23:52.479Z,3656.00
2023-04-15T08:24:52.521Z,3652.00
2023-04-15T08:25:52.481Z,3604.00
2023-04-15T08:26:52.496Z,3504.00
2023-04-15T08:27:52.501Z,4032.00
2023-04-15T08:28:52.509Z,3720.00
2023-04-15T08:29:52.509Z,3796.00
2023-04-15T08:30:52.516Z,3656.00
2023-04-15T08:31:52.625Z,4052.00
2023-04-15T08:32:52.588Z,3852.00
2023-04-15T08:33:52.537Z,3612.00
2023-04-15T08:34:52.538Z,3952.00
2023-04-15T08:35:52.536Z,4508.00
2023-04-15T08:36:52.551Z,4380.00
2023-04-15T08:37:52.548Z,4168.00
2023-04-15T08:38:52.559Z,4260.00
2023-04-15T08:39:52.572Z,4136.00
2023-04-15T08:40:52.584Z,4488.00
2023-04-15T08:41:52.568Z,4256.00
2023-04-15T08:42:52.580Z,4676.00
2023-04-15T08:43:52.583Z,4964.00
2023-04-15T08:44:52.591Z,5164.00
2023-04-15T08:45:52.590Z,5188.00
2023-04-15T08:46:52.620Z,5124.00
2023-04-15T08:47:52.723Z,4776.00
2023-04-15T08:48:52.626Z,4796.00
2023-04-15T08:49:52.618Z,5112.00
2023-04-15T08:50:52.634Z,5092.00
2023-04-15T08:51:52.630Z,4904.00
2023-04-15T08:52:52.638Z,5220.00
2023-04-15T08:53:52.654Z,5460.00
2023-04-15T08:54:52.643Z,4936.00
2023-04-15T08:55:52.674Z,4816.00
2023-04-15T08:56:52.749Z,4648.00
2023-04-15T08:57:52.660Z,4848.00
2023-04-15T08:58:52.662Z,4728.00
2023-04-15T08:59:52.680Z,4592.00
2023-04-15T09:00:52.748Z,4880.00
2023-04-15T09:01:52.725Z,4844.00
2023-04-15T09:02:52.858Z,4580.00
2023-04-15T09:03:52.760Z,4732.00
2023-04-15T09:04:52.708Z,4380.00
2023-04-15T09:05:53.279Z,4424.00
2023-04-15T09:06:52.719Z,4308.00
2023-04-15T09:07:52.763Z,4508.00
2023-04-15T09:08:52.720Z,4660.00
2023-04-15T09:09:52.739Z,4664.00
2023-04-15T09:10:52.746Z,4732.00
2023-04-15T09:11:52.754Z,4624.00
2023-04-15T09:12:52.767Z,4680.00
2023-04-15T09:13:52.754Z,4336.00
2023-04-15T09:14:52.763Z,4208.00
2023-04-15T09:15:52.762Z,4164.00
2023-04-15T09:16:52.798Z,3884.00
2023-04-15T09:17:52.806Z,4276.00
2023-04-15T09:18:52.785Z,4300.00
2023-04-15T09:19:52.798Z,4332.00
2023-04-15T09:20:52.787Z,3932.00
2023-04-15T09:21:52.803Z,4508.00
2023-04-15T09:22:52.804Z,4332.00
2023-04-15T09:23:52.812Z,4528.00
2023-04-15T09:24:52.818Z,4388.00
2023-04-15T09:25:52.817Z,4524.00
2023-04-15T09:26:52.822Z,5548.00
2023-04-15T09:27:52.824Z,5448.00
2023-04-15T09:28:52.915Z,5280.00
2023-04-15T09:29:52.841Z,4812.00
2023-04-15T09:30:52.868Z,4692.00
2023-04-15T09:31:52.854Z,5576.00
2023-04-15T09:32:53.001Z,5588.00
2023-04-15T09:33:52.868Z,5148.00
2023-04-15T09:34:52.874Z,4768.00
2023-04-15T09:35:52.877Z,4700.00
2023-04-15T09:36:52.890Z,4612.00
2023-04-15T09:37:52.880Z,4572.00
2023-04-15T09:38:52.972Z,4388.00
2023-04-15T09:39:52.896Z,4804.00
2023-04-15T09:40:52.907Z,4836.00
2023-04-15T09:41:52.910Z,5440.00
2023-04-15T09:42:52.917Z,4728.00
2023-04-15T09:43:52.917Z,4508.00
2023-04-15T09:44:52.946Z,4612.00
2023-04-15T09:45:52.949Z,4788.00
2023-04-15T09:46:52.935Z,4892.00
2023-04-15T09:47:52.941Z,5160.00
2023-04-15T09:48:52.968Z,4728.00
2023-04-15T09:49:52.964Z,4180.00
2023-04-15T09:50:52.958Z,4308.00
2023-04-15T09:52:04.402Z,4116.00
2023-04-15T09:52:52.976Z,4100.00
2023-04-15T09:53:52.995Z,4132.00
2023-04-15T09:54:52.985Z,3816.00
2023-04-15T09:55:52.986Z,3912.00
2023-04-15T09:56:53.000Z,3848.00
2023-04-15T09:57:53.003Z,4108.00
2023-04-15T09:58:53.005Z,3808.00
2023-04-15T09:59:53.008Z,3704.00
2023-04-15T10:00:53.067Z,3748.00
2023-04-15T10:01:53.088Z,4020.00
2023-04-15T10:02:53.192Z,4724.00
2023-04-15T10:03:53.082Z,4712.00
2023-04-15T10:04:53.046Z,4352.00
2023-04-15T10:05:53.057Z,4308.00
2023-04-15T10:06:53.061Z,4380.00
2023-04-15T10:07:53.065Z,5092.00
2023-04-15T10:08:53.070Z,5140.00
2023-04-15T10:09:53.095Z,4756.00
2023-04-15T10:10:53.092Z,4528.00
2023-04-15T10:11:53.092Z,4040.00
2023-04-15T10:12:53.093Z,4088.00
2023-04-15T10:13:53.095Z,4352.00
2023-04-15T10:14:53.127Z,4516.00
2023-04-15T10:15:53.154Z,4048.00
2023-04-15T10:16:53.180Z,4272.00
2023-04-15T10:17:53.165Z,4024.00
2023-04-15T10:18:53.126Z,3836.00
2023-04-15T10:19:53.134Z,3620.00
2023-04-15T10:20:53.136Z,3500.00
2023-04-15T10:21:53.150Z,4536.00
2023-04-15T10:22:53.166Z,4368.00
2023-04-15T10:23:53.167Z,3392.00
2023-04-15T10:24:53.161Z,3076.00
2023-04-15T10:25:53.167Z,3044.00
2023-04-15T10:26:53.173Z,3140.00
2023-04-15T10:27:53.173Z,3412.00
2023-04-15T10:28:53.186Z,3880.00
2023-04-15T10:29:53.188Z,3716.00
2023-04-15T10:30:53.241Z,4048.00
2023-04-15T10:31:53.237Z,3460.00
2023-04-15T10:32:53.283Z,3472.00
2023-04-15T10:33:53.218Z,3736.00
2023-04-15T10:34:54.647Z,3896.00
2023-04-15T10:35:53.226Z,4196.00
2023-04-15T10:36:53.233Z,4392.00
2023-04-15T10:37:53.246Z,4324.00
2023-04-15T10:38:53.246Z,4200.00
2023-04-15T10:39:53.254Z,4220.00
2023-04-15T10:40:53.253Z,5056.00
2023-04-15T10:41:53.260Z,4528.00
2023-04-15T10:42:53.268Z,4960.00
2023-04-15T10:43:53.298Z,4600.00
2023-04-15T10:44:53.282Z,4216.00
2023-04-15T10:45:53.312Z,4024.00
2023-04-15T10:46:53.463Z,4352.00
2023-04-15T10:47:53.348Z,4200.00
2023-04-15T10:48:53.331Z,3364.00
2023-04-15T10:49:53.316Z,3328.00
2023-04-15T10:50:53.323Z,3532.00
2023-04-15T10:51:53.317Z,3416.00
2023-04-15T10:52:53.338Z,3716.00
2023-04-15T10:53:53.338Z,3848.00
2023-04-15T10:54:53.346Z,4088.00
2023-04-15T10:55:53.340Z,4052.00
2023-04-15T10:56:53.358Z,4144.00
2023-04-15T10:57:53.361Z,4068.00
2023-04-15T10:58:53.362Z,4260.00
2023-04-15T10:59:53.366Z,4288.00
2023-04-15T11:00:53.377Z,4400.00
2023-04-15T11:01:53.551Z,4368.00
2023-04-15T11:02:53.525Z,4588.00
2023-04-15T11:03:53.450Z,4524.00
2023-04-15T11:04:53.503Z,4616.00
2023-04-15T11:05:53.416Z,4348.00
2023-04-15T11:06:53.418Z,4708.00
2023-04-15T11:07:53.414Z,4776.00
2023-04-15T11:08:53.424Z,4748.00
2023-04-15T11:09:53.425Z,4612.00
2023-04-15T11:10:53.431Z,4416.00
2023-04-15T11:11:53.448Z,3964.00
2023-04-15T11:12:53.453Z,4248.00
2023-04-15T11:13:53.455Z,3800.00
2023-04-15T11:14:53.455Z,3888.00
2023-04-15T11:15:53.482Z,3744.00
2023-04-15T11:16:53.475Z,4368.00
2023-04-15T11:17:53.559Z,4032.00
2023-04-15T11:18:53.478Z,3644.00
2023-04-15T11:19:53.500Z,3564.00
2023-04-15T11:20:53.514Z,3572.00
2023-04-15T11:21:53.504Z,3736.00
2023-04-15T11:22:53.503Z,3548.00
2023-04-15T11:23:53.510Z,3808.00
2023-04-15T11:24:53.517Z,3684.00
2023-04-15T11:25:53.520Z,4232.00
2023-04-15T11:26:53.534Z,4120.00
2023-04-15T11:27:53.533Z,4240.00
2023-04-15T11:28:53.540Z,4252.00
2023-04-15T11:29:53.546Z,4340.00
2023-04-15T11:30:53.551Z,4376.00
2023-04-15T11:31:53.609Z,4320.00
2023-04-15T11:32:53.624Z,4732.00
2023-04-15T11:33:53.577Z,4476.00
2023-04-15T11:34:53.575Z,4776.00
2023-04-15T11:35:53.584Z,4868.00
2023-04-15T11:36:53.604Z,4436.00
2023-04-15T11:37:53.598Z,4476.00
2023-04-15T11:38:53.609Z,4204.00
2023-04-15T11:39:53.612Z,4364.00
2023-04-15T11:40:56.686Z,3872.00
2023-04-15T11:41:53.630Z,3864.00
2023-04-15T11:42:53.629Z,3764.00
2023-04-15T11:43:53.647Z,3440.00
2023-04-15T11:44:53.647Z,3816.00
2023-04-15T11:45:53.884Z,3540.00
2023-04-15T11:46:53.660Z,3492.00
2023-04-15T11:47:53.719Z,3352.00
2023-04-15T11:48:53.667Z,3456.00
2023-04-15T11:49:53.675Z,3416.00
2023-04-15T11:50:53.681Z,3152.00
2023-04-15T11:51:53.688Z,3292.00
2023-04-15T11:52:53.715Z,3220.00
2023-04-15T11:53:53.706Z,3620.00
2023-04-15T11:54:53.716Z,3428.00
2023-04-15T11:55:53.707Z,3300.00
2023-04-15T11:56:53.731Z,2832.00
2023-04-15T11:57:53.724Z,2880.00
2023-04-15T11:58:53.766Z,3104.00
2023-04-15T11:59:53.733Z,3008.00
2023-04-15T12:00:53.738Z,3516.00
2023-04-15T12:01:53.801Z,3796.00
2023-04-15T12:02:53.869Z,3616.00
2023-04-15T12:03:53.951Z,3596.00
2023-04-15T12:04:53.886Z,3272.00
2023-04-15T12:05:53.775Z,3200.00
2023-04-15T12:06:53.774Z,3324.00
2023-04-15T12:07:53.780Z,3316.00
2023-04-15T12:08:53.811Z,3424.00
2023-04-15T12:09:53.789Z,3456.00
2023-04-15T12:10:53.805Z,3124.00
2023-04-15T12:11:53.880Z,3312.00
2023-04-15T12:12:53.820Z,2976.00
2023-04-15T12:13:53.821Z,2736.00
2023-04-15T12:14:53.830Z,2788.00
2023-04-15T12:15:53.871Z,2896.00
2023-04-15T12:16:53.848Z,2676.00
2023-04-15T12:17:53.878Z,2632.00
2023-04-15T12:18:53.847Z,3640.00
2023-04-15T12:19:53.849Z,4360.00
2023-04-15T12:20:53.865Z,4656.00
2023-04-15T12:21:53.868Z,4120.00
2023-04-15T12:22:53.896Z,3772.00
2023-04-15T12:23:53.887Z,3016.00
2023-04-15T12:24:53.926Z,2924.00
2023-04-15T12:25:53.903Z,2848.00
2023-04-15T12:26:53.898Z,2772.00
2023-04-15T12:27:53.922Z,2356.00
2023-04-15T12:28:53.908Z,2300.00
2023-04-15T12:29:53.921Z,2304.00
2023-04-15T12:30:54.021Z,2628.00
2023-04-15T12:31:53.949Z,2504.00
2023-04-15T12:32:53.963Z,2328.00
2023-04-15T12:33:53.958Z,1976.00
2023-04-15T12:34:53.951Z,2028.00
2023-04-15T12:35:53.952Z,2128.00
2023-04-15T12:36:53.970Z,2012.00
2023-04-15T12:37:53.977Z,1572.00
2023-04-15T12:38:53.970Z,1640.00
2023-04-15T12:39:54.012Z,1652.00
2023-04-15T12:40:54.026Z,1560.00
2023-04-15T12:41:53.995Z,1904.00
2023-04-15T12:42:54.004Z,2132.00
2023-04-15T12:43:54.003Z,2316.00
2023-04-15T12:44:54.012Z,2336.00
2023-04-15T12:45:54.016Z,1984.00
2023-04-15T12:46:54.068Z,1992.00
2023-04-15T12:47:54.059Z,2220.00
2023-04-15T12:48:54.048Z,2672.00
2023-04-15T12:49:54.048Z,2892.00
2023-04-15T12:50:54.058Z,2804.00
2023-04-15T12:51:54.069Z,2636.00
2023-04-15T12:52:54.061Z,1728.00
2023-04-15T12:53:54.070Z,2328.00
2023-04-15T12:54:54.081Z,3436.00
2023-04-15T12:55:54.087Z,3064.00
2023-04-15T12:56:54.106Z,2260.00
2023-04-15T12:57:54.095Z,1744.00
2023-04-15T12:58:54.092Z,1984.00
2023-04-15T12:59:54.105Z,2032.00
2023-04-15T13:00:54.116Z,2244.00
2023-04-15T13:01:54.602Z,2512.00
2023-04-15T13:02:54.184Z,2348.00
2023-04-15T13:03:54.227Z,2304.00
2023-04-15T13:04:54.210Z,2616.00
2023-04-15T13:05:54.142Z,2424.00
2023-04-15T13:06:54.153Z,2236.00
2023-04-15T13:07:54.163Z,2288.00
2023-04-15T13:08:58.204Z,2636.00
2023-04-15T13:09:54.175Z,2764.00
2023-04-15T13:10:54.164Z,2844.00
2023-04-15T13:11:54.190Z,1988.00
2023-04-15T13:12:54.209Z,2472.00
2023-04-15T13:13:54.190Z,2516.00
2023-04-15T13:14:54.200Z,2316.00
2023-04-15T13:15:54.277Z,2296.00
2023-04-15T13:16:54.220Z,2552.00
2023-04-15T13:17:54.318Z,2416.00
2023-04-15T13:18:54.222Z,2044.00
2023-04-15T13:19:54.223Z,2092.00
2023-04-15T13:20:54.228Z,1976.00
2023-04-15T13:21:54.237Z,2520.00
2023-04-15T13:22:54.249Z,2068.00
2023-04-15T13:23:54.253Z,1484.00
2023-04-15T13:24:54.253Z,1520.00
2023-04-15T13:25:54.276Z,1380.00
2023-04-15T13:26:54.266Z,1188.00
2023-04-15T13:27:54.266Z,1016.00
2023-04-15T13:28:54.293Z,1088.00
2023-04-15T13:29:54.286Z,1300.00
2023-04-15T13:30:54.290Z,1312.00
2023-04-15T13:31:54.413Z,1436.00
2023-04-15T13:32:54.368Z,1340.00
2023-04-15T13:33:54.307Z,1516.00
2023-04-15T13:34:54.321Z,1608.00
2023-04-15T13:35:54.316Z,1440.00
2023-04-15T13:36:54.329Z,1496.00
2023-04-15T13:37:54.336Z,1516.00
2023-04-15T13:38:54.344Z,1348.00
2023-04-15T13:39:54.344Z,1312.00
2023-04-15T13:40:54.358Z,1244.00
2023-04-15T13:41:54.359Z,1256.00
2023-04-15T13:42:54.363Z,1196.00
2023-04-15T13:43:54.377Z,1132.00
2023-04-15T13:44:54.394Z,1216.00
2023-04-15T13:45:54.404Z,1036.00
2023-04-15T13:46:54.388Z,1200.00
2023-04-15T13:47:54.514Z,1136.00
2023-04-15T13:48:54.390Z,1160.00
2023-04-15T13:49:54.399Z,1356.00
2023-04-15T13:50:54.409Z,1420.00
2023-04-15T13:51:54.423Z,1292.00
2023-04-15T13:52:54.424Z,1296.00
2023-04-15T13:53:54.423Z,1300.00
2023-04-15T13:55:07.063Z,1120.00
2023-04-15T13:55:54.439Z,1176.00
2023-04-15T13:56:54.441Z,1040.00
2023-04-15T13:57:54.450Z,980.00
2023-04-15T13:59:36.996Z,932.00
2023-04-15T14:00:37.150Z,928.00
2023-04-15T14:01:37.030Z,1652.00
2023-04-15T14:02:37.170Z,1480.00
2023-04-15T14:03:37.311Z,1716.00
2023-04-15T14:04:37.037Z,2088.00
2023-04-15T14:05:37.037Z,2200.00
2023-04-15T14:06:37.035Z,2080.00
2023-04-15T14:07:37.049Z,2896.00
2023-04-15T14:08:37.063Z,3308.00
2023-04-15T14:09:43.010Z,3576.00
2023-04-15T14:10:37.060Z,4224.00
2023-04-15T14:11:37.087Z,4988.00
2023-04-15T14:12:37.083Z,5360.00
2023-04-15T14:13:37.075Z,6048.00
2023-04-15T14:14:37.081Z,6680.00
2023-04-15T14:15:37.125Z,6284.00
2023-04-15T14:16:37.130Z,4680.00
2023-04-15T14:17:37.147Z,3752.00
2023-04-15T14:18:37.115Z,2880.00
2023-04-15T14:19:37.114Z,2924.00
2023-04-15T14:20:37.118Z,3300.00
2023-04-15T14:21:37.122Z,3224.00
2023-04-15T14:22:37.137Z,4016.00
2023-04-15T14:23:37.133Z,4024.00
2023-04-15T14:24:37.147Z,3696.00
2023-04-15T14:25:37.146Z,4196.00
2023-04-15T14:27:19.709Z,4292.00
2023-04-15T14:28:19.701Z,3796.00
2023-04-15T14:29:19.705Z,3712.00
2023-04-15T14:30:19.705Z,3744.00
2023-04-15T14:31:19.942Z,3856.00
2023-04-15T14:32:19.839Z,3908.00
2023-04-15T14:33:19.739Z,3980.00
2023-04-15T14:34:19.737Z,4396.00
2023-04-15T14:35:19.753Z,4648.00
2023-04-15T14:36:19.761Z,4148.00
2023-04-15T14:37:19.766Z,5004.00
2023-04-15T14:38:19.760Z,4496.00
2023-04-15T14:39:19.763Z,4908.00
2023-04-15T14:40:19.775Z,5172.00
2023-04-15T14:41:19.781Z,5580.00
2023-04-15T14:42:19.787Z,6152.00
2023-04-15T14:43:19.787Z,6768.00
2023-04-15T14:44:19.802Z,6496.00
2023-04-15T14:45:19.812Z,7148.00
2023-04-15T14:46:19.886Z,6496.00
2023-04-15T14:47:19.889Z,5864.00
2023-04-15T14:48:19.846Z,5468.00
2023-04-15T14:49:19.853Z,5056.00
2023-04-15T14:50:19.841Z,4860.00
2023-04-15T14:51:19.843Z,4776.00
2023-04-15T14:52:19.848Z,4964.00
2023-04-15T14:53:19.864Z,5728.00
2023-04-15T14:54:21.208Z,6172.00
2023-04-15T14:55:19.886Z,6328.00
2023-04-15T14:56:19.882Z,6372.00
2023-04-15T14:57:19.889Z,6448.00
2023-04-15T14:58:19.886Z,6552.00
2023-04-15T14:59:19.901Z,5924.00
2023-04-15T15:00:19.907Z,4556.00
2023-04-15T15:01:19.922Z,3792.00
2023-04-15T15:02:37.312Z,3752.00
2023-04-15T15:03:19.979Z,3916.00
2023-04-15T15:04:20.030Z,4088.00
2023-04-15T15:05:20.071Z,3800.00
2023-04-15T15:06:19.949Z,4180.00
2023-04-15T15:07:19.954Z,4332.00
2023-04-15T15:08:19.953Z,4692.00
2023-04-15T15:09:19.973Z,5004.00
2023-04-15T15:10:30.261Z,5044.00
2023-04-15T15:11:19.971Z,5064.00
2023-04-15T15:12:19.991Z,4740.00
2023-04-15T15:13:19.996Z,4668.00
2023-04-15T15:14:20.001Z,4448.00
2023-04-15T15:16:20.097Z,3312.00
2023-04-15T15:18:07.652Z,2824.00
2023-04-15T15:19:07.585Z,2740.00
2023-04-15T15:20:07.600Z,2456.00
2023-04-15T15:21:07.593Z,2252.00
2023-04-15T15:22:50.134Z,2152.00
2023-04-15T15:23:50.147Z,2168.00
2023-04-15T15:24:50.149Z,2172.00
2023-04-15T15:25:50.158Z,1980.00
2023-04-15T15:26:50.169Z,1752.00
2023-04-15T15:27:50.166Z,1760.00
2023-04-15T15:28:50.188Z,1836.00
2023-04-15T15:29:50.178Z,1948.00
2023-04-15T15:30:50.185Z,2040.00
2023-04-15T15:31:50.237Z,2132.00
2023-04-15T15:32:50.314Z,2252.00
2023-04-15T15:33:50.215Z,2388.00
2023-04-15T15:34:50.212Z,2636.00
2023-04-15T15:35:50.248Z,2828.00
2023-04-15T15:36:50.226Z,2836.00
2023-04-15T15:37:50.235Z,2652.00
2023-04-15T15:38:50.240Z,2656.00
2023-04-15T15:39:50.244Z,2620.00
2023-04-15T15:40:50.251Z,2508.00
2023-04-15T15:41:50.261Z,2440.00
2023-04-15T15:42:50.262Z,2384.00
2023-04-15T15:43:50.276Z,2268.00
2023-04-15T15:44:50.291Z,2176.00
2023-04-15T15:45:50.287Z,2016.00
2023-04-15T15:46:50.313Z,1960.00
2023-04-15T15:47:50.362Z,1848.00
2023-04-15T15:48:50.302Z,1736.00
2023-04-15T15:49:50.330Z,1612.00
2023-04-15T15:50:50.316Z,1584.00
2023-04-15T15:51:50.344Z,1552.00
2023-04-15T15:52:50.349Z,1592.00
2023-04-15T15:53:50.345Z,1652.00
2023-04-15T15:54:50.348Z,1500.00
2023-04-15T15:55:51.102Z,1332.00
2023-04-15T15:56:50.348Z,1440.00
2023-04-15T15:59:22.997Z,1408.00
2023-04-15T16:00:23.012Z,1420.00
2023-04-15T16:01:23.040Z,1420.00
2023-04-15T16:02:37.580Z,1336.00
2023-04-15T16:03:23.149Z,1332.00
2023-04-15T16:04:23.487Z,1372.00
2023-04-15T16:05:23.042Z,1324.00
2023-04-15T16:06:23.044Z,1280.00
2023-04-15T16:07:23.075Z,1228.00
2023-04-15T16:08:23.059Z,1260.00
2023-04-15T16:09:23.056Z,1272.00
2023-04-15T16:10:23.072Z,1212.00
2023-04-15T16:11:23.078Z,1156.00
2023-04-15T16:12:23.085Z,1148.00
2023-04-15T16:13:23.089Z,1152.00
2023-04-15T16:14:23.097Z,1180.00
2023-04-15T16:15:23.100Z,1208.00
2023-04-15T16:16:23.160Z,1292.00
2023-04-15T16:17:23.136Z,1320.00
2023-04-15T16:18:23.132Z,1288.00
2023-04-15T16:19:23.127Z,1428.00
2023-04-15T16:20:23.130Z,1700.00
2023-04-15T16:21:23.130Z,1844.00
2023-04-15T16:22:23.145Z,1988.00
2023-04-15T16:23:23.294Z,2024.00
2023-04-15T16:24:23.172Z,1828.00
2023-04-15T16:25:23.165Z,1836.00
2023-04-15T16:26:23.186Z,1944.00
2023-04-15T16:27:23.174Z,2052.00
2023-04-15T16:28:26.721Z,2156.00
2023-04-15T16:29:23.198Z,2152.00
2023-04-15T16:30:23.199Z,2140.00
2023-04-15T16:31:23.314Z,2184.00
2023-04-15T16:32:23.252Z,2320.00
2023-04-15T16:33:23.228Z,2488.00
2023-04-15T16:34:23.238Z,2436.00
2023-04-15T16:35:23.232Z,2436.00
2023-04-15T16:36:23.242Z,2544.00
2023-04-15T16:37:23.232Z,2520.00
2023-04-15T16:38:23.258Z,2440.00
2023-04-15T16:39:23.274Z,2416.00
2023-04-15T16:40:23.257Z,2304.00
2023-04-15T16:41:23.272Z,2236.00
2023-04-15T16:42:23.271Z,2256.00
2023-04-15T16:43:23.281Z,2268.00
2023-04-15T16:44:23.277Z,2124.00
2023-04-15T16:45:23.289Z,1840.00
2023-04-15T16:46:23.323Z,1616.00
2023-04-15T16:47:23.332Z,2096.00
2023-04-15T16:48:23.312Z,2220.00
2023-04-15T16:50:05.855Z,2364.00
2023-04-15T16:51:05.857Z,2284.00
2023-04-15T16:52:05.864Z,2272.00
2023-04-15T16:53:05.871Z,2220.00
2023-04-15T16:54:05.881Z,2112.00
2023-04-15T16:55:05.928Z,1968.00
2023-04-15T16:56:05.892Z,1800.00
2023-04-15T16:57:05.893Z,1632.00
2023-04-15T16:58:07.896Z,1520.00
2023-04-15T16:59:06.051Z,1364.00
2023-04-15T17:00:05.913Z,1248.00
2023-04-15T17:01:05.959Z,1152.00
2023-04-15T17:02:05.956Z,1120.00
2023-04-15T17:03:06.264Z,1064.00
2023-04-15T17:04:06.048Z,984.00
2023-04-15T17:05:05.945Z,844.00
2023-04-15T17:06:05.960Z,780.00
2023-04-15T17:07:05.957Z,740.00
2023-04-15T17:08:05.967Z,760.00
2023-04-15T17:09:06.167Z,756.00
2023-04-15T17:10:05.974Z,732.00
2023-04-15T17:11:06.011Z,688.00
2023-04-15T17:12:05.987Z,684.00
2023-04-15T17:13:05.999Z,680.00
2023-04-15T17:14:06.023Z,664.00
2023-04-15T17:15:06.022Z,680.00
2023-04-15T17:16:06.112Z,708.00
2023-04-15T17:18:08.601Z,688.00
2023-04-15T17:19:08.609Z,640.00
2023-04-15T17:20:08.620Z,604.00
2023-04-15T17:21:08.625Z,564.00
2023-04-15T17:22:08.623Z,528.00
2023-04-15T17:23:08.632Z,488.00
2023-04-15T17:24:08.644Z,468.00
2023-04-15T17:25:08.640Z,448.00
2023-04-15T17:26:08.655Z,440.00
2023-04-15T17:27:08.682Z,452.00
2023-04-15T17:28:08.701Z,472.00
2023-04-15T17:29:08.675Z,448.00
2023-04-15T17:30:08.787Z,428.00
2023-04-15T17:31:08.724Z,388.00
2023-04-15T17:32:08.694Z,376.00
2023-04-15T17:33:50.461Z,352.00
2023-04-15T17:34:09.802Z,356.00
2023-04-15T17:35:08.708Z,344.00
2023-04-15T17:36:08.723Z,340.00
2023-04-15T17:37:08.722Z,328.00
2023-04-15T17:38:08.727Z,280.00
2023-04-15T17:39:08.746Z,292.00
2023-04-15T17:40:09.122Z,280.00
2023-04-15T17:41:08.752Z,252.00
2023-04-15T17:42:08.757Z,260.00
2023-04-15T17:44:22.953Z,236.00
2023-04-15T17:45:21.364Z,228.00
2023-04-15T17:46:21.393Z,188.00
2023-04-15T17:47:21.399Z,156.00
2023-04-15T17:48:21.378Z,152.00
2023-04-15T17:49:21.385Z,136.00
2023-04-15T17:50:21.389Z,120.00
2023-04-15T17:51:21.396Z,116.00
2023-04-15T17:52:21.410Z,104.00
2023-04-15T17:53:21.412Z,96.00
2023-04-15T17:54:21.414Z,92.00
2023-04-15T17:55:21.422Z,88.00
2023-04-15T17:56:21.426Z,84.00
2023-04-15T17:57:21.446Z,80.00
2023-04-15T17:58:21.448Z,76.00
2023-04-15T17:59:21.447Z,76.00
2023-04-15T18:00:21.481Z,68.00
2023-04-15T18:01:21.547Z,60.00
2023-04-15T18:02:21.650Z,52.00
2023-04-15T18:03:21.610Z,56.00
2023-04-15T18:04:22.810Z,48.00
2023-04-15T18:05:21.551Z,48.00
2023-04-15T18:06:21.481Z,48.00
2023-04-15T18:07:21.514Z,44.00
2023-04-15T18:08:21.503Z,40.00
2023-04-15T18:09:21.507Z,40.00
2023-04-15T18:10:21.514Z,36.00
2023-04-15T18:11:21.518Z,32.00
2023-04-15T18:12:21.520Z,28.00
2023-04-15T18:13:21.523Z,24.00
2023-04-15T18:14:33.676Z,20.00
2023-04-15T18:15:21.564Z,20.00
2023-04-15T18:16:21.668Z,16.00
2023-04-15T18:17:21.576Z,16.00
2023-04-15T18:18:21.560Z,16.00
2023-04-15T18:19:21.566Z,12.00
2023-04-15T18:20:21.567Z,8.00
2023-04-15T18:21:21.583Z,8.00
2023-04-15T18:22:21.576Z,8.00
2023-04-15T18:23:21.595Z,8.00
2023-04-15T18:24:21.601Z,8.00
2023-04-15T18:25:21.607Z,4.00
2023-04-15T18:26:21.612Z,4.00
2023-04-15T18:27:21.615Z,8.00
2023-04-15T18:28:21.622Z,4.00
2023-04-15T18:30:21.634Z,4.00
2023-04-15T18:32:04.278Z,4.00
2023-04-15T18:33:04.221Z,0.00
2023-04-15T18:34:04.456Z,0.00
2023-04-15T18:35:04.200Z,4.00
2023-04-15T18:36:04.213Z,4.00
2023-04-15T18:37:04.214Z,0.00
2023-04-15T18:38:04.214Z,0.00
2023-04-15T18:39:04.636Z,0.00
2023-04-15T18:40:04.235Z,0.00
2023-04-15T18:41:04.227Z,0.00
2023-04-15T18:42:04.238Z,0.00
2023-04-15T18:43:04.243Z,0.00
2023-04-15T18:44:04.255Z,0.00
2023-04-15T18:45:04.287Z,0.00
2023-04-15T18:46:04.306Z,0.00
2023-04-15T18:47:04.270Z,0.00
2023-04-15T18:48:04.367Z,0.00
2023-04-15T18:49:04.645Z,0.00
2023-04-15T18:50:04.286Z,0.00
2023-04-15T18:51:04.296Z,0.00
2023-04-15T18:52:04.321Z,0.00
2023-04-15T18:53:04.310Z,0.00
2023-04-15T18:54:04.305Z,0.00
2023-04-15T18:55:04.319Z,0.00
2023-04-15T18:56:04.318Z,0.00
2023-04-15T18:57:04.332Z,0.00
2023-04-15T18:58:06.402Z,0.00
2023-04-15T18:59:11.583Z,0.00
2023-04-15T19:00:04.349Z,0.00
2023-04-15T19:01:04.397Z,0.00
2023-04-15T19:02:04.421Z,0.00
2023-04-15T19:03:04.442Z,0.00
2023-04-15T19:04:04.438Z,0.00
2023-04-15T19:05:04.418Z,0.00
2023-04-15T19:06:04.379Z,0.00
2023-04-15T19:07:04.393Z,0.00
2023-04-15T19:08:04.399Z,0.00
2023-04-15T19:10:27.016Z,0.00
2023-04-15T19:11:27.027Z,0.00
2023-04-15T19:12:27.026Z,0.00
2023-04-15T19:13:27.038Z,0.00
2023-04-15T19:14:27.038Z,0.00
2023-04-15T19:15:27.043Z,0.00
2023-04-15T19:16:27.148Z,0.00
2023-04-15T19:17:27.082Z,0.00
2023-04-15T19:18:27.063Z,0.00
2023-04-15T19:19:27.093Z,0.00
2023-04-15T19:20:27.079Z,0.00
2023-04-15T19:21:27.084Z,0.00
2023-04-15T19:22:27.092Z,0.00
2023-04-15T19:23:27.095Z,0.00
2023-04-15T19:24:27.118Z,0.00
2023-04-15T19:25:27.118Z,0.00
2023-04-15T19:26:27.107Z,0.00
2023-04-15T19:27:27.111Z,0.00
2023-04-15T19:28:27.131Z,0.00
2023-04-15T19:29:27.144Z,0.00
2023-04-15T19:30:27.155Z,0.00
2023-04-15T19:31:27.165Z,0.00
2023-04-15T19:32:27.188Z,0.00
2023-04-15T19:33:27.156Z,0.00
2023-04-15T19:34:27.159Z,0.00
2023-04-15T19:35:27.191Z,0.00
2023-04-15T19:36:27.172Z,0.00
2023-04-15T19:38:14.731Z,0.00
2023-04-15T19:39:14.745Z,0.00
2023-04-15T19:40:14.780Z,0.00
2023-04-15T19:41:14.742Z,0.00
2023-04-15T19:42:14.756Z,0.00
2023-04-15T19:43:14.772Z,0.00
2023-04-15T19:44:14.765Z,0.00
2023-04-15T19:45:14.778Z,0.00
2023-04-15T19:46:14.840Z,0.00
2023-04-15T19:47:14.787Z,0.00
2023-04-15T19:48:14.785Z,0.00
2023-04-15T19:49:14.788Z,0.00
2023-04-15T19:50:14.801Z,0.00
2023-04-15T19:51:14.819Z,0.00
2023-04-15T19:52:14.813Z,0.00
2023-04-15T19:53:14.813Z,0.00
2023-04-15T19:54:14.819Z,0.00
2023-04-15T19:55:14.835Z,0.00
2023-04-15T19:56:14.835Z,0.00
2023-04-15T19:57:14.842Z,0.00
2023-04-15T19:58:14.855Z,0.00
2023-04-15T19:59:14.881Z,0.00
2023-04-15T20:00:14.860Z,0.00
2023-04-15T20:01:14.888Z,0.00
2023-04-15T20:02:14.995Z,0.00
2023-04-15T20:03:14.992Z,0.00
2023-04-15T20:04:14.994Z,0.00
2023-04-15T20:05:14.890Z,0.00
2023-04-15T20:06:14.892Z,0.00
2023-04-15T20:07:14.921Z,0.00
2023-04-15T20:08:14.908Z,0.00
2023-04-15T20:09:14.915Z,0.00
2023-04-15T20:10:14.921Z,0.00
2023-04-15T20:11:15.117Z,0.00
2023-04-15T20:12:50.712Z,0.00
2023-04-15T20:13:14.929Z,0.00
2023-04-15T20:14:14.933Z,0.00
2023-04-15T20:15:14.944Z,0.00
2023-04-15T20:16:14.995Z,0.00
2023-04-15T20:17:14.981Z,0.00
2023-04-15T20:21:00.844Z,0.00
2023-04-15T20:22:00.854Z,0.00
2023-04-15T20:23:00.880Z,0.00
2023-04-15T20:24:00.871Z,0.00
2023-04-15T20:25:00.876Z,0.00
2023-04-15T20:26:00.877Z,0.00
2023-04-15T20:27:00.893Z,0.00
2023-04-15T20:28:01.162Z,0.00
2023-04-15T20:29:00.892Z,0.00
2023-04-15T20:30:00.889Z,0.00
2023-04-15T20:31:00.926Z,0.00
2023-04-15T20:32:00.901Z,0.00
2023-04-15T20:33:00.970Z,0.00
2023-04-15T20:34:00.920Z,0.00
2023-04-15T20:35:00.922Z,0.00
2023-04-15T20:36:00.924Z,0.00
2023-04-15T20:37:00.940Z,0.00
2023-04-15T20:40:51.855Z,0.00
2023-04-15T20:41:51.850Z,0.00
2023-04-15T20:42:51.852Z,0.00
2023-04-15T20:43:51.856Z,0.00
2023-04-15T20:44:51.856Z,0.00
2023-04-15T20:45:51.870Z,0.00
2023-04-15T20:46:51.886Z,0.00
2023-04-15T20:47:51.920Z,0.00